Time;durP1;ratioP1;P1;durP2;ratioP2;P2;SDS_P1;SDS_P2;PMS_P1;PMS_P2;Temp;Humidity;BMP_temperature;BMP_pressure;BME280_temperature;BME280_humidity;BME280_pressure;Samples;Min_cycle;Max_cycle;Signal;HPM_P1;HPM_P2
2021/05/10 00:01:01;;;;;;;0.73;0.60;;;21.70;24.80;;;22.52;100.00;-21290.88;4993768;28;20462;-67
2021/05/10 00:03:29;;;;;;;0.70;0.60;;;21.80;24.70;;;22.53;100.00;-21291.13;4994181;28;20453;-67
2021/05/10 00:05:57;;;;;;;0.70;0.60;;;21.60;25.60;;;22.43;100.00;-21288.69;4994074;28;20450;-67
2021/05/10 00:08:25;;;;;;;0.80;0.70;;;21.70;25.80;;;22.43;100.00;-21288.69;4994496;28;20513;-67
2021/05/10 00:10:53;;;;;;;0.80;0.60;;;21.60;26.70;;;22.51;100.00;-21290.72;4992139;28;20774;-67
2021/05/10 00:13:21;;;;;;;0.70;0.60;;;21.60;25.70;;;22.45;100.00;-21289.09;4976980;28;20931;-68
2021/05/10 00:15:49;;;;;;;0.80;0.60;;;21.60;26.20;;;22.38;100.00;-21287.19;4993334;28;20536;-68
2021/05/10 00:18:18;;;;;;;0.70;0.60;;;21.60;25.80;;;22.35;100.00;-21286.38;4993559;28;20766;-68
2021/05/10 00:20:48;;;;;;;0.80;0.70;;;21.60;26.20;;;22.42;100.00;-21288.28;4993793;28;20451;-68
2021/05/10 00:23:17;;;;;;;0.70;0.60;;;21.70;25.90;;;22.50;100.00;-21290.47;4994870;28;20447;-67
2021/05/10 00:25:45;;;;;;;0.73;0.60;;;21.60;25.70;;;22.44;100.00;-21288.81;4994435;28;20493;-67
2021/05/10 00:28:13;;;;;;;0.70;0.60;;;21.60;26.60;;;22.44;100.00;-21288.81;4993566;28;20411;-67
2021/05/10 00:30:41;;;;;;;0.77;0.70;;;21.70;27.30;;;22.17;100.00;-21281.75;4994550;28;20458;-67
2021/05/10 00:33:08;;;;;;;0.80;0.60;;;21.40;31.00;;;22.19;100.00;-21282.28;4994400;28;20453;-67
2021/05/10 00:35:35;;;;;;;0.80;0.63;;;21.50;28.40;;;22.22;100.00;-21282.84;4993479;28;20463;-67
2021/05/10 00:38:03;;;;;;;0.70;0.60;;;21.60;28.10;;;22.49;100.00;-21290.19;4994026;28;20446;-68
2021/05/10 00:40:33;;;;;;;0.80;0.70;;;21.90;25.60;;;22.62;100.00;-21293.72;4992914;28;20455;-67
2021/05/10 00:43:01;;;;;;;0.70;0.60;;;22.00;25.20;;;22.67;100.00;-21295.09;4994344;28;20479;-69
2021/05/10 00:45:29;;;;;;;0.77;0.63;;;22.00;25.30;;;22.64;100.00;-21294.28;4991520;28;20840;-68
2021/05/10 00:47:57;;;;;;;0.70;0.60;;;21.90;25.00;;;22.69;100.00;-21295.34;4995816;28;20430;-69
2021/05/10 00:50:24;;;;;;;0.80;0.60;;;21.90;25.40;;;22.52;100.00;-21291.00;4984930;28;20445;-68
2021/05/10 00:52:51;;;;;;;0.80;0.80;;;21.70;25.80;;;22.43;100.00;-21288.56;4993613;28;20524;-68
2021/05/10 00:55:19;;;;;;;0.80;0.70;;;21.70;26.20;;;22.26;100.00;-21283.91;4976269;28;20497;-68
2021/05/10 00:57:50;;;;;;;0.70;0.60;;;21.50;27.40;;;22.25;100.00;-21283.66;4993870;28;20962;-68
2021/05/10 01:00:20;;;;;;;0.70;0.60;;;21.40;27.90;;;22.06;100.00;-21278.75;5001624;28;20462;-69
2021/05/10 01:02:48;;;;;;;0.70;0.60;;;21.30;28.10;;;22.14;100.00;-21280.94;5004556;28;20525;-68
2021/05/10 01:05:16;;;;;;;0.80;0.70;;;21.30;28.60;;;22.07;100.00;-21279.00;4992624;28;20526;-68
2021/05/10 01:07:44;;;;;;;0.70;0.70;;;21.20;28.20;;;22.07;100.00;-21279.00;4993921;28;20970;-68
2021/05/10 01:10:15;;;;;;;0.80;0.60;;;21.20;28.40;;;22.09;100.00;-21279.56;4997231;28;20502;-68
2021/05/10 01:12:43;;;;;;;0.80;0.60;;;21.20;29.50;;;21.88;100.00;-21273.84;5003440;28;20528;-68
2021/05/10 01:15:13;;;;;;;0.70;0.60;;;21.00;30.50;;;21.71;100.00;-21269.47;5017255;28;20425;-68
2021/05/10 01:17:41;;;;;;;0.70;0.60;;;20.90;31.30;;;21.74;100.00;-21270.03;5003817;28;20430;-68
2021/05/10 01:20:12;;;;;;;0.80;0.67;;;20.80;32.20;;;21.61;100.00;-21266.59;4995275;28;20508;-68
2021/05/10 01:22:45;;;;;;;0.70;0.60;;;20.80;31.60;;;21.46;100.00;-21262.78;4997264;28;20419;-68
2021/05/10 01:25:16;;;;;;;0.80;0.70;;;20.70;33.10;;;21.50;100.00;-21263.63;4998868;28;20438;-68
2021/05/10 01:27:44;;;;;;;0.73;0.60;;;20.70;33.10;;;21.57;100.00;-21265.66;4997202;28;20505;-68
2021/05/10 01:30:17;;;;;;;0.77;0.67;;;20.70;34.10;;;21.64;100.00;-21267.44;4996302;28;20426;-68
2021/05/10 01:32:44;;;;;;;0.80;0.70;;;20.80;32.30;;;21.67;100.00;-21268.38;5004517;28;20460;-68
2021/05/10 01:35:13;;;;;;;0.80;0.70;;;20.90;31.80;;;21.52;100.00;-21264.28;4967677;28;20501;-69
2021/05/10 01:37:41;;;;;;;0.80;0.60;;;20.80;33.40;;;21.73;100.00;-21269.75;5001425;28;20853;-68
2021/05/10 01:40:10;;;;;;;0.80;0.70;;;20.90;31.70;;;21.81;100.00;-21271.94;5015364;28;20492;-69
2021/05/10 01:42:38;;;;;;;0.70;0.60;;;21.00;31.40;;;21.86;100.00;-21273.44;4997400;28;20415;-68
2021/05/10 01:45:08;;;;;;;0.80;0.70;;;21.00;31.50;;;21.81;100.00;-21272.06;4996623;28;20518;-69
2021/05/10 01:47:35;;;;;;;0.80;0.60;;;21.00;31.70;;;21.87;100.00;-21273.69;4996107;28;20831;-69
2021/05/10 01:50:11;;;;;;;0.70;0.60;;;21.20;29.70;;;22.11;100.00;-21280.09;4994852;28;20521;-69
2021/05/10 01:52:38;;;;;;;0.73;0.60;;;21.40;28.40;;;22.23;100.00;-21283.09;4996405;28;20926;-68
2021/05/10 01:55:08;;;;;;;0.80;0.60;;;21.60;27.90;;;22.45;100.00;-21288.97;5014027;28;20441;-67
2021/05/10 01:57:36;;;;;;;0.70;0.60;;;21.90;25.80;;;22.58;100.00;-21292.63;5016155;28;20414;-68
2021/05/10 02:00:09;;;;;;;0.80;0.70;;;22.00;25.00;;;22.67;100.00;-21295.09;5015495;28;20462;-71
2021/05/10 02:02:37;;;;;;;0.70;0.60;;;22.10;24.50;;;22.73;100.00;-21296.44;4976767;28;20436;-69
2021/05/10 02:05:08;;;;;;;0.80;0.60;;;22.10;24.60;;;22.83;100.00;-21299.16;4976914;28;20490;-69
2021/05/10 02:07:38;;;;;;;0.70;0.70;;;22.20;24.00;;;22.93;100.00;-21301.88;4976570;28;20423;-68
2021/05/10 02:10:09;;;;;;;0.70;0.60;;;22.40;23.50;;;22.97;100.00;-21302.84;4989406;28;20505;-69
2021/05/10 02:12:37;;;;;;;0.70;0.60;;;22.40;23.40;;;22.86;100.00;-21299.97;4995202;28;20534;-70
2021/05/10 02:15:08;;;;;;;0.77;0.67;;;22.30;24.00;;;22.85;100.00;-21299.72;4993382;28;20479;-69
2021/05/10 02:17:36;;;;;;;0.70;0.60;;;22.20;24.10;;;22.78;100.00;-21297.94;4995635;28;20793;-70
2021/05/10 02:20:07;;;;;;;0.70;0.70;;;22.20;24.00;;;22.67;100.00;-21295.09;4995867;28;20426;-69
2021/05/10 02:22:34;;;;;;;0.70;0.60;;;22.10;24.20;;;22.65;100.00;-21294.53;4994091;28;20973;-70
2021/05/10 02:25:03;;;;;;;0.70;0.60;;;22.00;24.40;;;22.56;100.00;-21292.09;4996851;28;20902;-70
2021/05/10 02:27:32;;;;;;;0.80;0.70;;;21.90;25.20;;;22.47;100.00;-21289.63;4994023;28;20503;-69
2021/05/10 02:29:59;;;;;;;0.70;0.60;;;21.80;25.60;;;22.37;100.00;-21286.91;4993845;28;20545;-69
2021/05/10 02:32:26;;;;;;;0.70;0.60;;;21.70;26.80;;;22.23;100.00;-21283.09;4995374;28;20856;-69
2021/05/10 02:34:54;;;;;;;0.70;0.60;;;21.40;27.00;;;21.91;100.00;-21274.66;4978251;28;20416;-72
2021/05/10 02:37:21;;;;;;;0.70;0.60;;;21.20;29.90;;;21.93;100.00;-21275.34;4994594;28;20470;-69
2021/05/10 02:39:48;;;;;;;0.80;0.70;;;21.00;29.90;;;21.77;100.00;-21270.84;5012441;28;20900;-69
2021/05/10 02:42:16;;;;;;;0.80;0.70;;;20.90;30.80;;;21.60;100.00;-21266.47;5015230;28;20770;-69
2021/05/10 02:44:43;;;;;;;0.80;0.70;;;20.80;31.70;;;21.53;100.00;-21264.56;5001559;28;20474;-69
2021/05/10 02:47:11;;;;;;;0.80;0.70;;;20.70;33.30;;;21.40;100.00;-21261.16;5013923;28;20964;-69
2021/05/10 02:49:38;;;;;;;0.80;0.70;;;20.60;34.00;;;21.28;100.00;-21257.88;5015136;28;20406;-69
2021/05/10 02:52:05;;;;;;;0.80;0.70;;;20.50;34.10;;;21.40;100.00;-21261.16;5014569;28;20461;-70
2021/05/10 02:54:32;;;;;;;0.80;0.70;;;20.60;33.50;;;21.41;100.00;-21261.28;5015120;28;20478;-69
2021/05/10 02:57:00;;;;;;;0.80;0.70;;;20.70;33.10;;;21.31;100.00;-21258.69;5014838;28;20496;-70
2021/05/10 02:59:27;;;;;;;0.70;0.60;;;20.70;35.00;;;21.20;100.00;-21255.84;5006190;28;20525;-69
2021/05/10 03:01:55;;;;;;;0.80;0.70;;;20.60;36.20;;;21.26;100.00;-21257.34;4995464;28;20450;-69
2021/05/10 03:04:22;;;;;;;0.70;0.60;;;20.60;35.10;;;21.15;100.00;-21254.47;4995064;28;20433;-69
2021/05/10 03:06:50;;;;;;;0.70;0.60;;;20.40;38.20;;;20.88;100.00;-21247.09;4994796;28;20786;-69
2021/05/10 03:09:17;;;;;;;0.70;0.70;;;20.20;39.60;;;20.67;100.00;-21241.66;4977966;28;20449;-69
2021/05/10 03:11:44;;;;;;;0.70;0.60;;;20.00;41.00;;;20.68;100.00;-21241.91;4961548;28;20451;-69
2021/05/10 03:14:11;;;;;;;0.80;0.70;;;20.00;41.00;;;20.65;100.00;-21241.09;4995015;28;20529;-69
2021/05/10 03:16:39;;;;;;;0.80;0.70;;;19.90;42.00;;;20.85;100.00;-21246.44;5009663;28;20444;-70
2021/05/10 03:19:09;;;;;;;0.80;0.60;;;20.10;39.20;;;21.19;100.00;-21255.56;4993358;28;20432;-69
2021/05/10 03:21:37;;;;;;;0.80;0.70;;;20.60;36.90;;;21.36;100.00;-21259.94;4987223;28;20472;-69
2021/05/10 03:24:06;;;;;;;0.80;0.63;;;20.70;36.10;;;21.46;100.00;-21262.78;5007081;28;20484;-69
2021/05/10 03:26:34;;;;;;;0.80;0.63;;;20.70;35.80;;;21.46;100.00;-21262.66;4995121;28;20463;-69
2021/05/10 03:29:02;;;;;;;0.80;0.70;;;20.70;35.30;;;21.52;100.00;-21264.28;4998515;28;20471;-69
2021/05/10 03:31:30;;;;;;;0.80;0.63;;;20.70;35.40;;;21.42;100.00;-21261.56;4978961;28;20447;-69
2021/05/10 03:33:58;;;;;;;0.80;0.70;;;20.70;36.50;;;21.47;100.00;-21262.94;4994142;28;20434;-69
2021/05/10 03:36:27;;;;;;;0.80;0.70;;;20.70;36.20;;;21.55;100.00;-21265.13;4992937;28;20456;-70
2021/05/10 03:38:54;;;;;;;0.80;0.70;;;20.70;35.60;;;21.50;100.00;-21263.75;4993482;28;20862;-69
2021/05/10 03:41:22;;;;;;;0.80;0.67;;;20.70;35.60;;;21.56;100.00;-21265.38;4994503;28;20470;-69
2021/05/10 03:43:49;;;;;;;0.80;0.70;;;20.80;35.40;;;21.59;100.00;-21266.06;4994611;28;20428;-69
2021/05/10 03:46:16;;;;;;;0.70;0.60;;;20.80;36.10;;;21.68;100.00;-21268.66;4994296;28;20429;-69
2021/05/10 03:48:44;;;;;;;0.80;0.60;;;20.90;34.60;;;21.69;100.00;-21268.94;4994124;28;20484;-69
2021/05/10 03:51:11;;;;;;;0.70;0.60;;;20.90;35.10;;;21.58;100.00;-21265.94;4976144;28;20454;-68
2021/05/10 03:53:43;;;;;;;0.80;0.70;;;20.80;36.70;;;21.57;100.00;-21265.53;4999394;28;20974;-69
2021/05/10 03:56:10;;;;;;;0.70;0.60;;;20.80;37.00;;;21.56;100.00;-21265.25;4996291;28;20462;-70
2021/05/10 03:58:38;;;;;;;0.70;0.60;;;20.80;37.70;;;21.58;100.00;-21265.94;5012797;28;20420;-70
2021/05/10 04:01:05;;;;;;;0.70;0.60;;;20.90;37.00;;;21.69;100.00;-21268.94;4977296;28;20502;-69
2021/05/10 04:04:15;;;;;;;0.80;0.60;;;21.00;37.30;;;21.60;100.00;-21266.34;4994035;28;20465;-69
2021/05/10 04:14:40;;;;;;;0.80;0.70;;;21.00;36.60;;;21.66;100.00;-21268.13;4994817;28;20437;-69
2021/05/10 04:17:07;;;;;;;0.77;0.60;;;20.90;38.30;;;21.58;100.00;-21265.94;5009597;28;20524;-69
2021/05/10 04:19:34;;;;;;;0.80;0.80;;;20.80;38.60;;;21.30;100.00;-21258.28;4994632;28;20841;-68
2021/05/10 04:22:01;;;;;;;0.80;0.60;;;20.60;50.10;;;20.07;100.00;-21225.53;4985517;28;20826;-68
2021/05/10 04:24:30;;;;;;;0.80;0.70;;;19.50;67.20;;;19.72;100.00;-21216.09;4993925;28;20476;-68
2021/05/10 04:26:57;;;;;;;0.70;0.60;;;19.30;69.80;;;19.80;100.00;-21218.28;4994001;28;20426;-68
2021/05/10 04:29:24;;;;;;;0.70;0.50;;;19.40;68.50;;;19.88;100.00;-21220.34;4999616;28;20470;-69
2021/05/10 04:31:51;;;;;;;0.80;0.70;;;19.50;67.70;;;19.96;100.00;-21222.53;4988952;28;20193;-69
2021/05/10 04:34:18;;;;;;;0.80;0.70;;;19.60;69.80;;;20.03;100.00;-21224.44;4992533;28;20486;-68
2021/05/10 04:36:45;;;;;;;0.80;0.60;;;19.60;67.70;;;20.14;100.00;-21227.44;4993944;28;20949;-67
2021/05/10 04:39:12;;;;;;;0.70;0.60;;;19.60;68.30;;;20.23;100.00;-21229.75;4999986;28;20573;-69
2021/05/10 04:41:40;;;;;;;0.80;0.70;;;19.70;68.80;;;20.27;100.00;-21230.84;4997356;28;20473;-68
2021/05/10 04:44:07;;;;;;;0.70;0.63;;;19.70;68.10;;;20.45;100.00;-21235.63;5017526;28;20416;-68
2021/05/10 04:46:35;;;;;;;0.80;0.60;;;19.90;66.10;;;20.49;100.00;-21236.72;5017806;28;20422;-68
2021/05/10 04:49:03;;;;;;;0.80;0.70;;;19.90;66.30;;;20.41;100.00;-21234.69;5017189;28;20410;-67
2021/05/10 04:51:30;;;;;;;0.80;0.63;;;19.80;68.10;;;20.58;100.00;-21239.19;4999577;28;20427;-67
2021/05/10 04:53:56;;;;;;;0.80;0.60;;;19.90;65.10;;;20.58;100.00;-21239.06;4996731;28;20490;-68
2021/05/10 04:56:24;;;;;;;0.80;0.70;;;20.00;63.80;;;20.64;100.00;-21240.69;4999662;28;20954;-67
2021/05/10 04:58:52;;;;;;;0.80;0.70;;;20.00;62.50;;;20.75;100.00;-21243.81;4999652;28;20957;-70
2021/05/10 05:01:19;;;;;;;0.77;0.60;;;20.10;61.40;;;20.77;100.00;-21244.09;4997919;28;20460;-69
2021/05/10 05:03:46;;;;;;;0.80;0.60;;;20.10;60.00;;;20.77;100.00;-21244.09;4987283;28;20457;-69
2021/05/10 05:06:14;;;;;;;0.80;0.70;;;20.20;60.40;;;20.91;100.00;-21247.91;4995797;28;20470;-67
2021/05/10 05:08:40;;;;;;;0.80;0.70;;;20.30;57.10;;;21.00;100.00;-21250.38;4980068;28;20870;-68
2021/05/10 05:11:07;;;;;;;0.70;0.60;;;20.40;56.20;;;21.06;100.00;-21252.03;4997287;28;20407;-68
2021/05/10 05:13:34;;;;;;;0.80;0.60;;;20.40;55.50;;;21.02;100.00;-21250.78;4997319;28;20435;-68
2021/05/10 05:16:02;;;;;;;0.70;0.60;;;20.40;55.70;;;20.97;100.00;-21249.56;4980541;28;20451;-68
2021/05/10 05:18:30;;;;;;;0.77;0.60;;;20.30;57.00;;;20.95;100.00;-21249.00;4996978;28;20529;-68
2021/05/10 05:20:57;;;;;;;0.80;0.60;;;20.20;57.60;;;21.00;100.00;-21250.38;4994925;28;20481;-67
2021/05/10 05:23:25;;;;;;;0.70;0.60;;;20.20;57.70;;;20.94;100.00;-21248.88;5005726;28;20803;-68
2021/05/10 05:25:57;;;;;;;0.80;0.60;;;20.30;56.00;;;20.89;100.00;-21247.38;4999090;28;20452;-68
2021/05/10 05:28:27;;;;;;;0.80;0.70;;;20.30;56.50;;;21.02;100.00;-21250.91;4996927;28;20426;-69
2021/05/10 05:30:55;;;;;;;0.80;0.70;;;20.30;56.10;;;20.89;100.00;-21247.38;4998275;28;20431;-68
2021/05/10 05:33:24;;;;;;;0.80;0.70;;;20.20;57.80;;;20.87;100.00;-21246.84;4995175;28;20953;-69
2021/05/10 05:35:52;;;;;;;0.70;0.60;;;20.10;58.00;;;20.82;100.00;-21245.47;4978982;28;20439;-68
2021/05/10 05:38:19;;;;;;;0.70;0.60;;;20.10;57.70;;;20.88;100.00;-21247.09;4995190;28;20466;-68
2021/05/10 05:40:47;;;;;;;0.73;0.60;;;20.10;57.70;;;20.77;100.00;-21244.25;4992622;28;20457;-70
2021/05/10 05:43:15;;;;;;;0.77;0.60;;;20.20;57.60;;;20.79;100.00;-21244.66;5016323;28;20426;-69
2021/05/10 05:45:43;;;;;;;0.70;0.60;;;20.20;57.80;;;20.79;100.00;-21244.78;4979204;28;20441;-68
2021/05/10 05:48:12;;;;;;;0.70;0.60;;;20.10;58.20;;;20.84;100.00;-21246.00;4997040;28;20449;-68
2021/05/10 05:50:40;;;;;;;0.70;0.60;;;20.10;57.60;;;20.88;100.00;-21247.09;5014085;28;20417;-69
2021/05/10 05:53:07;;;;;;;0.80;0.70;;;20.10;58.10;;;20.88;100.00;-21247.09;4994593;28;20459;-66
2021/05/10 05:55:34;;;;;;;0.80;0.80;;;20.10;58.30;;;20.85;100.00;-21246.28;4996430;28;20430;-68
2021/05/10 05:58:02;;;;;;;0.70;0.60;;;20.10;58.80;;;20.79;100.00;-21244.66;4996458;28;20462;-70
2021/05/10 06:00:30;;;;;;;0.77;0.70;;;20.10;59.10;;;20.86;100.00;-21246.56;4997467;28;21000;-68
2021/05/10 06:02:57;;;;;;;0.70;0.60;;;20.10;59.00;;;20.84;100.00;-21246.00;5001799;28;20552;-69
2021/05/10 06:05:25;;;;;;;0.70;0.60;;;20.00;59.70;;;20.81;100.00;-21245.34;4969392;28;20858;-69
2021/05/10 06:07:53;;;;;;;0.70;0.60;;;19.90;60.90;;;20.92;100.00;-21248.34;4979066;28;20461;-68
2021/05/10 06:10:26;;;;;;;0.70;0.60;;;19.90;62.30;;;20.89;100.00;-21247.50;4990734;28;20485;-68
2021/05/10 06:12:54;;;;;;;0.70;0.70;;;19.90;62.20;;;21.10;100.00;-21252.97;5015884;28;20414;-69
2021/05/10 06:15:22;;;;;;;0.70;0.60;;;19.90;62.60;;;21.23;100.00;-21256.66;5015539;28;20430;-68
2021/05/10 06:17:50;;;;;;;0.77;0.70;;;19.90;63.20;;;21.07;100.00;-21252.28;4985803;28;20449;-67
2021/05/10 06:20:18;;;;;;;0.70;0.60;;;19.90;64.40;;;21.02;100.00;-21250.78;4994531;28;20459;-69
2021/05/10 06:22:49;;;;;;;0.70;0.60;;;20.00;65.00;;;21.00;100.00;-21250.38;4996183;28;20457;-68
2021/05/10 06:25:17;;;;;;;0.70;0.60;;;19.90;65.50;;;20.84;100.00;-21246.00;4994182;28;20477;-68
2021/05/10 06:27:44;;;;;;;0.80;0.70;;;19.90;65.00;;;20.79;100.00;-21244.66;4995975;28;20993;-70
2021/05/10 06:30:14;;;;;;;0.80;0.80;;;19.90;67.00;;;20.59;100.00;-21239.47;4995128;28;20431;-69
2021/05/10 06:32:41;;;;;;;0.70;0.60;;;19.80;66.40;;;20.58;100.00;-21239.19;4996725;28;20443;-68
2021/05/10 06:35:09;;;;;;;1.23;1.13;;;19.70;67.60;;;20.60;100.00;-21239.59;5002113;28;20525;-70
2021/05/10 06:37:37;;;;;;;0.70;0.60;;;19.60;68.50;;;20.55;100.00;-21238.38;4997888;28;20479;-68
2021/05/10 06:40:06;;;;;;;0.80;0.70;;;19.60;69.90;;;20.53;100.00;-21237.81;5006952;28;20792;-71
2021/05/10 06:42:34;;;;;;;0.77;0.60;;;19.60;70.10;;;20.44;100.00;-21235.38;4995741;28;20431;-70
2021/05/10 06:45:03;;;;;;;0.73;0.60;;;19.60;70.50;;;20.48;100.00;-21236.59;5001045;28;20541;-69
2021/05/10 06:47:30;;;;;;;0.80;0.70;;;19.60;71.70;;;20.51;100.00;-21237.28;5015119;28;20422;-68
2021/05/10 06:49:58;;;;;;;0.70;0.60;;;19.50;72.30;;;20.73;100.00;-21243.28;5015125;28;20415;-68
2021/05/10 06:52:26;;;;;;;0.80;0.70;;;19.90;72.50;;;21.28;100.00;-21257.75;5014769;28;21004;-69
2021/05/10 06:54:54;;;;;;;0.80;0.70;;;20.30;70.10;;;21.53;100.00;-21264.56;5014925;28;20480;-70
2021/05/10 06:57:21;;;;;;;0.73;0.60;;;20.60;68.40;;;21.92;100.00;-21274.94;5014935;28;20545;-70
2021/05/10 06:59:49;;;;;;;0.80;0.70;;;20.90;67.70;;;21.80;100.00;-21271.66;4990240;28;20435;-69
2021/05/10 07:02:16;;;;;;;0.80;0.70;;;20.80;65.20;;;21.92;100.00;-21274.94;4994787;28;20471;-68
2021/05/10 07:04:43;;;;;;;0.80;0.70;;;20.90;66.40;;;21.82;100.00;-21272.34;4994180;28;20454;-70
2021/05/10 07:07:10;;;;;;;0.80;0.70;;;20.70;65.00;;;21.87;100.00;-21273.56;4995134;28;20434;-71
2021/05/10 07:09:38;;;;;;;0.80;0.70;;;20.80;64.10;;;22.03;100.00;-21277.91;4979956;28;20472;-70
2021/05/10 07:12:05;;;;;;;0.80;0.70;;;20.90;65.00;;;22.06;100.00;-21278.75;4995110;28;20411;-70
2021/05/10 07:14:33;;;;;;;0.80;0.70;;;21.10;63.70;;;22.34;100.00;-21286.09;4995254;28;20439;-70
2021/05/10 07:17:00;;;;;;;0.73;0.60;;;21.30;62.20;;;22.60;100.00;-21293.19;4993732;28;20426;-70
2021/05/10 07:19:28;;;;;;;0.80;0.70;;;21.50;60.30;;;22.67;100.00;-21295.09;4985885;28;20437;-70
2021/05/10 07:21:55;;;;;;;0.80;0.70;;;21.60;58.50;;;23.19;100.00;-21308.69;4996635;28;20461;-69
2021/05/10 07:24:24;;;;;;;0.70;0.60;;;22.20;56.80;;;23.06;100.00;-21305.44;5012919;28;20446;-68
2021/05/10 07:26:59;;;;;;;0.77;0.60;;;21.80;55.90;;;22.67;100.00;-21294.94;5111427;27;20519;-70
2021/05/10 07:29:26;;;;;;;0.70;0.60;;;21.30;58.80;;;22.58;100.00;-21292.63;5085221;28;20458;-68
2021/05/10 07:31:53;;;;;;;0.80;0.70;;;21.10;60.00;;;22.54;100.00;-21291.53;5074151;28;20417;-69
2021/05/10 07:34:22;;;;;;;0.70;0.60;;;21.20;61.00;;;22.42;100.00;-21288.28;5090444;28;20946;-70
2021/05/10 07:36:50;;;;;;;0.70;0.60;;;21.30;62.30;;;22.31;100.00;-21285.28;5090906;28;20390;-69
2021/05/10 07:39:17;;;;;;;0.70;0.70;;;21.30;62.50;;;22.09;100.00;-21279.41;5074235;28;20421;-68
2021/05/10 07:41:44;;;;;;;0.80;0.60;;;20.90;60.50;;;21.83;100.00;-21272.47;5068632;28;20420;-71
2021/05/10 07:44:13;;;;;;;0.80;0.60;;;20.80;60.60;;;21.52;100.00;-21264.16;5070092;28;20412;-69
2021/05/10 07:46:40;;;;;;;0.80;0.60;;;20.70;59.80;;;21.59;100.00;-21266.06;5068515;28;20441;-70
2021/05/10 07:49:07;;;;;;;0.80;0.70;;;20.70;60.40;;;21.59;100.00;-21266.19;5086021;28;20518;-69
2021/05/10 07:51:34;;;;;;;0.80;0.70;;;20.60;59.30;;;21.38;100.00;-21260.47;5069019;28;20424;-70
2021/05/10 07:54:02;;;;;;;0.80;0.70;;;20.60;57.90;;;21.38;100.00;-21260.47;5070141;28;20458;-69
2021/05/10 07:56:30;;;;;;;0.80;0.60;;;20.50;59.00;;;21.30;100.00;-21258.28;5068980;28;20408;-70
2021/05/10 07:59:00;;;;;;;0.70;0.60;;;20.50;58.10;;;21.36;100.00;-21259.94;5069936;28;20927;-69
2021/05/10 08:01:28;;;;;;;0.80;0.60;;;20.50;59.30;;;21.27;100.00;-21257.47;5069161;28;20530;-69
2021/05/10 08:03:55;;;;;;;0.80;0.70;;;20.40;59.40;;;21.41;100.00;-21261.44;5070023;28;20534;-69
2021/05/10 08:06:23;;;;;;;0.73;0.60;;;20.50;58.90;;;21.56;100.00;-21265.25;5070002;28;21037;-70
2021/05/10 08:08:53;;;;;;;0.80;0.60;;;20.70;58.10;;;21.67;100.00;-21268.38;5069887;28;20446;-69
2021/05/10 08:11:20;;;;;;;0.80;0.70;;;20.80;57.60;;;21.63;100.00;-21267.28;5070186;28;20502;-69
2021/05/10 08:13:47;;;;;;;0.80;0.70;;;20.80;57.60;;;21.42;100.00;-21261.56;5069795;28;20500;-69
2021/05/10 08:16:15;;;;;;;0.70;0.70;;;20.70;56.30;;;21.24;100.00;-21256.78;5069440;28;20924;-70
2021/05/10 08:18:44;;;;;;;0.77;0.60;;;20.60;57.10;;;21.75;100.00;-21270.28;5069423;28;20440;-70
2021/05/10 08:21:11;;;;;;;0.77;0.70;;;20.60;58.20;;;21.54;100.00;-21264.84;5069611;28;20880;-70
2021/05/10 08:23:38;;;;;;;0.80;0.70;;;20.30;59.60;;;21.14;100.00;-21254.19;5069590;28;20446;-69
2021/05/10 08:26:05;;;;;;;0.80;0.70;;;20.10;60.30;;;20.95;100.00;-21249.16;5068112;28;20519;-69
2021/05/10 08:28:32;;;;;;;0.80;0.60;;;19.90;62.50;;;20.84;100.00;-21246.00;5067950;28;20496;-69
2021/05/10 08:31:00;;;;;;;0.80;0.70;;;19.70;63.90;;;20.96;100.00;-21249.44;5068157;28;20430;-70
2021/05/10 08:33:29;;;;;;;0.80;0.70;;;19.60;64.40;;;20.43;100.00;-21235.09;5067730;28;20546;-71
2021/05/10 08:35:57;;;;;;;0.80;0.60;;;19.60;63.90;;;20.60;100.00;-21239.59;5069385;28;20404;-68
2021/05/10 08:38:25;;;;;;;0.80;0.70;;;19.70;65.30;;;20.61;100.00;-21240.00;5056137;28;20497;-70
2021/05/10 08:40:53;;;;;;;0.70;0.60;;;19.80;64.90;;;20.82;100.00;-21245.47;5056040;28;20503;-69
2021/05/10 08:43:22;;;;;;;0.80;0.70;;;19.90;64.10;;;21.32;100.00;-21258.97;5054861;28;20501;-69
2021/05/10 08:45:56;;;;;;;0.80;0.60;;;20.00;63.70;;;21.10;100.00;-21252.97;5037368;28;20468;-70
2021/05/10 08:48:25;;;;;;;0.80;0.70;;;20.20;63.70;;;21.00;100.00;-21250.38;5054522;28;20507;-71
2021/05/10 08:50:54;;;;;;;0.70;0.60;;;20.00;64.50;;;21.19;100.00;-21255.56;5056065;28;20806;-70
2021/05/10 08:53:36;;;;;;;0.80;0.60;;;19.90;63.60;;;20.67;100.00;-21241.66;5055600;28;20452;-70
2021/05/10 08:56:05;;;;;;;0.70;0.60;;;20.00;62.80;;;20.58;100.00;-21239.19;5055727;28;20408;-70
2021/05/10 08:58:37;;;;;;;0.80;0.70;;;19.90;62.50;;;20.42;100.00;-21234.81;5055171;28;20833;-69
2021/05/10 09:01:05;;;;;;;0.80;0.70;;;19.80;61.60;;;20.72;100.00;-21243.00;5055373;28;20984;-70
2021/05/10 09:03:38;;;;;;;0.80;0.70;;;19.70;64.40;;;20.62;100.00;-21240.28;5054228;28;20432;-70
2021/05/10 09:06:12;;;;;;;0.70;0.60;;;19.70;65.70;;;20.46;100.00;-21235.91;5055146;28;20458;-70
2021/05/10 09:08:43;;;;;;;0.70;0.60;;;19.70;65.80;;;20.48;100.00;-21236.59;5087764;28;20555;-72
2021/05/10 09:11:12;;;;;;;0.73;0.60;;;19.50;65.10;;;20.18;100.00;-21228.53;5055429;28;20436;-71
2021/05/10 09:13:42;;;;;;;0.80;0.70;;;19.50;66.40;;;20.08;100.00;-21225.81;5054625;28;20448;-71
2021/05/10 09:16:11;;;;;;;1.13;0.93;;;19.40;66.30;;;20.03;100.00;-21224.44;5054881;28;20435;-69
2021/05/10 09:18:39;;;;;;;0.70;0.60;;;19.20;67.20;;;19.78;100.00;-21217.88;5053516;28;20519;-70
2021/05/10 09:21:12;;;;;;;0.70;0.60;;;19.10;67.70;;;19.93;100.00;-21221.69;5055562;28;20459;-70
2021/05/10 09:24:00;;;;;;;0.70;0.60;;;19.10;68.40;;;20.02;100.00;-21224.28;5054087;28;20520;-69
2021/05/10 09:26:30;;;;;;;0.70;0.60;;;19.20;68.40;;;19.78;100.00;-21217.88;5054357;28;20459;-72
2021/05/10 09:28:58;;;;;;;0.73;0.60;;;19.10;68.00;;;19.96;100.00;-21222.53;5055170;28;20776;-69
2021/05/10 09:31:26;;;;;;;0.70;0.60;;;19.20;68.80;;;20.09;100.00;-21225.94;5054359;28;20808;-71
2021/05/10 09:33:54;;;;;;;0.80;0.60;;;19.30;69.30;;;20.66;100.00;-21241.38;5055025;28;20446;-70
2021/05/10 09:36:34;;;;;;;0.80;0.73;;;19.50;68.80;;;20.58;100.00;-21239.06;5086986;28;20420;-72
2021/05/10 09:39:06;;;;;;;0.80;0.70;;;19.30;66.80;;;20.48;100.00;-21236.59;5054235;28;20501;-70
2021/05/10 09:41:58;;;;;;;0.80;0.70;;;19.40;66.80;;;20.37;100.00;-21233.59;5054784;28;20519;-71
2021/05/10 09:44:40;;;;;;;0.70;0.60;;;19.50;66.30;;;20.59;100.00;-21239.47;5054506;28;20991;-70
2021/05/10 09:47:07;;;;;;;0.80;0.60;;;19.60;66.20;;;20.63;100.00;-21240.56;5054756;28;20517;-69
2021/05/10 09:49:49;;;;;;;0.80;0.70;;;19.60;67.40;;;20.82;100.00;-21245.47;5053700;28;20947;-69
2021/05/10 09:52:21;;;;;;;0.80;0.60;;;19.70;67.30;;;21.28;100.00;-21257.88;5054833;28;20416;-71
2021/05/10 09:54:55;;;;;;;0.80;0.70;;;19.70;66.10;;;20.67;100.00;-21241.66;5054171;28;20432;-71
2021/05/10 09:57:30;;;;;;;0.80;0.70;;;19.80;66.60;;;20.77;100.00;-21244.25;5054857;28;20400;-71
2021/05/10 10:00:15;;;;;;;0.80;0.70;;;19.70;66.50;;;20.33;100.00;-21232.34;5086601;28;20439;-70
2021/05/10 10:02:42;;;;;;;0.70;0.60;;;19.60;66.70;;;20.81;100.00;-21245.19;5053972;28;20534;-70
2021/05/10 10:05:12;;;;;;;0.80;0.70;;;19.50;68.20;;;20.19;100.00;-21228.66;5055314;28;20456;-71
2021/05/10 10:07:40;;;;;;;0.70;0.70;;;19.40;68.60;;;20.20;100.00;-21229.06;5054502;28;20443;-70
2021/05/10 10:10:10;;;;;;;0.70;0.60;;;19.30;70.30;;;20.38;100.00;-21233.72;5054468;28;20416;-71
2021/05/10 10:12:38;;;;;;;0.70;0.60;;;19.30;70.80;;;20.70;100.00;-21242.47;5052332;28;20454;-69
2021/05/10 10:15:07;;;;;;;0.80;0.70;;;19.60;69.00;;;20.85;100.00;-21246.44;5053577;28;20462;-69
2021/05/10 10:17:34;;;;;;;0.70;0.60;;;19.80;68.70;;;20.99;100.00;-21250.09;5054566;28;20423;-69
2021/05/10 10:20:06;;;;;;;0.73;0.60;;;20.10;67.00;;;21.52;100.00;-21264.28;5054431;28;20409;-68